Roberts, MT (59070)

7:55 AM MDT on September 04, 2015 (GMT -0600)
Clear Creek Rd, Roberts, MT | | Change Station
CLOSE
Current Station
Personal Weather Station
Location: Roberts, MT
Elevation: 4455 ft
Nearby Weather Stations

Elev 4455 ft 45.38 °N, 109.14 °W | Updated 2 seconds ago

Partly Cloudy
Partly Cloudy
50.2 °F
Feels Like 50.2 °F
N
1.8
Wind Variable Wind from NNE
Gusts 2.5 mph

Today
High -- | Low -- °F
--% Chance of Precip.
Yesterday
High -- | Low -- °F
Precip. -- in
6:41 AM 7:49 PM
Waning Gibbous, 59% visible
Pressure 29.91 in
Visibility 10.0 miles
Clouds Scattered Clouds 9500 ft
Mostly Cloudy 15000 ft
Dew Point 47 °F
Humidity 89%
Rainfall 0.07 in
Snow Depth Not available.
UV 1.0 out of 12
Pollen 8.00 out of 12
Air Quality Not available.
Flu Activity Not available.
METAR KBIL 041253Z 36006KT 10SM SCT095 BKN150 10/07 A2995 RMK AO2 SLP126 ACSL N-NE T01000072
Pressure 29.91 in
Visibility 10.0 miles
Clouds Scattered Clouds 9500 ft
Mostly Cloudy 15000 ft
Dew Point 47 °F
Humidity 89%
Rainfall 0.07 in
Snow Depth Not available.
UV 1.0 out of 12
Pollen 8.00 out of 12
Air Quality Not available.
Flu Activity Not available.
METAR KBIL 041253Z 36006KT 10SM SCT095 BKN150 10/07 A2995 RMK AO2 SLP126 ACSL N-NE T01000072

10-Day Weather Forecast

×

Almanac

Astronomy

Sep. 04, 2015 Rise Set
Actual Time
Civil Twilight
Nautical Twilight
Astronomical Twilight
Moon
Length of Visible Light
Length of Day
Tomorrow will be .
, % of the Moon is Illuminated

Today's Extremes

State Highs State Lows

Community

WunderPhotos

Upload Photos

1,852,181 photos uploaded!

WunderBlogs® & News

Nearby

Air Quality

  Air Quality AQ Index Pollutant
Not available.

Snow Depth

Station Depth Elevation

Earthquake Activity

City Distance Mag. Time & Date
Minimum magnitude displayed is 2.5.

Coastal Water Temperatures

Place Temperature

Stations

Nearby Weather Stations

Station Location Temp. Windchill Dew Point Humidity Wind Precip. Elev Updated Type